Time;durP1;ratioP1;P1;durP2;ratioP2;P2;SDS_P1;SDS_P2;PMS_P1;PMS_P2;Temp;Humidity;BMP_temperature;BMP_pressure;BME280_temperature;BME280_humidity;BME280_pressure;Samples;Min_cycle;Max_cycle;Signal;HPM_P1;HPM_P2
2022/06/29 00:01:54;;;;;;;5.30;3.30;;;13.40;99.90;;;;;;5051174;28;20102;-87
2022/06/29 00:04:20;;;;;;;5.57;3.13;;;13.40;99.90;;;;;;5036045;28;20451;-87
2022/06/29 00:06:46;;;;;;;6.07;3.28;;;13.40;99.90;;;;;;5035443;28;20378;-88
2022/06/29 00:09:11;;;;;;;8.50;3.10;;;13.30;99.90;;;;;;5034019;28;20385;-87
2022/06/29 00:11:37;;;;;;;3.75;2.63;;;13.30;99.90;;;;;;5015244;28;20445;-88
2022/06/29 00:14:03;;;;;;;8.13;3.03;;;13.30;99.90;;;;;;5001338;28;20042;-87
2022/06/29 00:16:29;;;;;;;4.95;3.75;;;13.20;99.90;;;;;;5021887;28;20048;-87
2022/06/29 00:18:54;;;;;;;7.00;3.72;;;13.30;99.90;;;;;;5057113;28;20028;-88
2022/06/29 00:21:20;;;;;;;5.07;3.10;;;13.20;99.90;;;;;;5020982;28;20051;-87
2022/06/29 00:23:45;;;;;;;5.10;3.45;;;13.30;99.90;;;;;;5003941;28;20045;-87
2022/06/29 00:26:11;;;;;;;5.85;3.10;;;13.20;99.90;;;;;;5022353;28;20044;-87
2022/06/29 00:28:37;;;;;;;9.30;3.58;;;13.20;99.90;;;;;;5066214;28;20040;-87
2022/06/29 00:31:03;;;;;;;4.55;3.28;;;13.20;99.90;;;;;;5045144;28;20351;-86
2022/06/29 00:33:28;;;;;;;5.93;3.55;;;13.20;99.90;;;;;;5031970;28;20484;-87
2022/06/29 00:35:54;;;;;;;6.18;3.33;;;13.20;99.90;;;;;;5023726;28;20032;-87
2022/06/29 00:38:20;;;;;;;4.65;3.05;;;13.20;99.90;;;;;;5038428;28;20036;-87
2022/06/29 00:40:45;;;;;;;7.05;3.63;;;13.10;99.90;;;;;;5033743;28;20048;-87
2022/06/29 00:43:11;;;;;;;3.85;3.42;;;13.10;99.90;;;;;;5011162;28;20050;-86
2022/06/29 00:45:37;;;;;;;5.45;3.50;;;13.00;99.90;;;;;;5038493;28;20135;-87
2022/06/29 00:48:03;;;;;;;7.95;4.32;;;13.00;99.90;;;;;;5024119;28;20045;-87
2022/06/29 00:50:31;;;;;;;9.00;3.67;;;13.00;99.90;;;;;;5054369;28;20131;-86
2022/06/29 00:53:05;;;;;;;4.82;3.72;;;13.00;99.90;;;;;;5029209;28;20036;-87
2022/06/29 00:55:32;;;;;;;6.88;4.25;;;12.90;99.90;;;;;;5007906;28;20044;-87
2022/06/29 00:58:04;;;;;;;4.53;4.00;;;12.90;99.90;;;;;;5036917;28;20125;-88
2022/06/29 01:00:31;;;;;;;5.50;4.05;;;12.90;99.90;;;;;;5035987;28;20469;-87
2022/06/29 01:02:59;;;;;;;9.68;4.68;;;12.90;99.90;;;;;;5030224;28;20037;-88
2022/06/29 01:05:28;;;;;;;6.30;4.93;;;12.90;99.90;;;;;;5022109;28;20044;-86
2022/06/29 01:07:54;;;;;;;7.03;4.60;;;13.00;99.90;;;;;;5033763;28;20029;-86
2022/06/29 01:10:21;;;;;;;8.32;4.75;;;13.00;99.90;;;;;;5034304;28;20122;-87
2022/06/29 01:12:51;;;;;;;6.93;4.90;;;13.10;99.90;;;;;;5030636;28;22009;-87
2022/06/29 01:15:20;;;;;;;7.97;5.22;;;13.10;99.90;;;;;;5027696;28;20051;-86
2022/06/29 01:17:46;;;;;;;9.13;4.90;;;13.10;99.90;;;;;;5037844;28;20131;-87
2022/06/29 01:20:13;;;;;;;7.95;5.38;;;13.10;99.90;;;;;;5046368;28;20660;-86
2022/06/29 01:22:39;;;;;;;6.00;4.55;;;13.10;99.90;;;;;;5044931;28;20044;-87
2022/06/29 01:25:06;;;;;;;7.35;5.03;;;13.10;99.90;;;;;;5030648;28;20044;-87
2022/06/29 01:27:32;;;;;;;7.22;5.15;;;13.10;99.90;;;;;;5045963;28;20048;-87
2022/06/29 01:29:58;;;;;;;8.57;5.65;;;13.20;99.90;;;;;;5021416;28;20392;-87
2022/06/29 01:32:24;;;;;;;6.68;5.55;;;13.20;99.90;;;;;;5035194;28;20041;-87
2022/06/29 01:34:50;;;;;;;9.93;5.15;;;13.30;99.90;;;;;;5030244;28;20044;-86
2022/06/29 01:37:16;;;;;;;10.98;5.32;;;13.30;99.90;;;;;;5036164;28;20082;-87
2022/06/29 01:39:42;;;;;;;6.38;5.38;;;13.30;99.90;;;;;;5037045;28;20086;-87
2022/06/29 01:42:08;;;;;;;7.47;5.00;;;13.30;99.90;;;;;;5034621;28;20037;-87
2022/06/29 01:44:36;;;;;;;5.78;5.05;;;13.20;99.90;;;;;;5027076;28;20141;-87
2022/06/29 01:47:03;;;;;;;6.63;5.25;;;13.20;99.90;;;;;;5028143;28;20130;-88
2022/06/29 01:49:29;;;;;;;6.00;5.43;;;13.20;99.90;;;;;;5021032;28;20489;-89
2022/06/29 01:51:56;;;;;;;9.13;6.18;;;13.20;99.90;;;;;;5019363;28;20049;-86
2022/06/29 01:54:22;;;;;;;8.52;6.22;;;13.30;99.90;;;;;;5029534;28;20049;-86
2022/06/29 01:56:48;;;;;;;9.10;6.18;;;13.30;99.90;;;;;;5059862;28;20043;-86
2022/06/29 01:59:14;;;;;;;7.40;6.07;;;13.40;99.90;;;;;;5043137;28;20048;-87
2022/06/29 02:01:40;;;;;;;8.05;6.13;;;13.40;99.90;;;;;;5053251;28;20032;-86
2022/06/29 02:04:06;;;;;;;11.65;6.03;;;13.50;99.90;;;;;;5026812;28;20497;-89
2022/06/29 02:06:32;;;;;;;5.90;5.28;;;13.60;99.90;;;;;;5036144;28;20064;-86
2022/06/29 02:08:58;;;;;;;8.55;5.65;;;13.60;99.90;;;;;;5031153;28;20051;-86
2022/06/29 02:11:24;;;;;;;6.82;6.13;;;13.70;99.90;;;;;;5019869;28;20032;-87
2022/06/29 02:13:51;;;;;;;8.48;6.18;;;13.80;99.90;;;;;;5037814;28;20468;-86
2022/06/29 02:16:17;;;;;;;7.60;6.00;;;13.80;99.90;;;;;;5043687;28;20302;-87
2022/06/29 02:18:43;;;;;;;8.13;6.40;;;13.90;99.90;;;;;;5021021;28;20448;-87
2022/06/29 02:21:09;;;;;;;8.60;5.82;;;14.00;99.90;;;;;;5047105;28;20032;-88
2022/06/29 02:23:36;;;;;;;6.90;6.18;;;14.00;99.90;;;;;;5037757;28;20393;-86
2022/06/29 02:26:02;;;;;;;9.65;6.82;;;14.10;99.90;;;;;;5019167;28;20045;-86
2022/06/29 02:28:28;;;;;;;9.25;6.90;;;14.10;99.90;;;;;;5039052;28;20091;-87
2022/06/29 02:36:22;;;;;;;8.23;6.60;;;14.10;99.90;;;;;;5043077;28;20085;-86
2022/06/29 02:38:47;;;;;;;8.60;6.50;;;14.10;99.90;;;;;;5043357;28;20389;-86
2022/06/29 02:41:13;;;;;;;10.07;6.13;;;14.10;99.90;;;;;;5041667;28;20123;-86
2022/06/29 02:43:38;;;;;;;9.73;6.13;;;14.10;99.90;;;;;;5020022;28;20040;-87
2022/06/29 02:46:04;;;;;;;8.55;6.25;;;14.10;99.90;;;;;;5022761;28;20067;-86
2022/06/29 02:48:32;;;;;;;9.75;6.32;;;14.10;99.90;;;;;;5035779;28;20131;-86
2022/06/29 02:50:58;;;;;;;7.25;5.50;;;14.20;99.90;;;;;;5033943;28;20045;-86
2022/06/29 02:53:25;;;;;;;8.52;5.95;;;14.20;99.90;;;;;;5031001;28;20508;-87
2022/06/29 02:55:50;;;;;;;8.00;5.93;;;14.20;99.90;;;;;;5038734;28;20496;-86
2022/06/29 02:58:16;;;;;;;10.48;6.55;;;14.20;99.90;;;;;;5015502;28;20041;-86
2022/06/29 03:00:42;;;;;;;8.05;6.15;;;14.20;99.90;;;;;;5025545;28;20072;-87
2022/06/29 03:03:07;;;;;;;7.40;6.15;;;14.20;99.90;;;;;;5044018;28;20052;-85
2022/06/29 03:05:33;;;;;;;6.60;5.90;;;14.20;99.90;;;;;;5053464;28;20037;-86
2022/06/29 03:07:58;;;;;;;11.60;5.95;;;14.20;99.90;;;;;;5047547;28;20036;-86
2022/06/29 03:10:24;;;;;;;9.95;6.53;;;14.20;99.90;;;;;;5028928;28;20072;-86
2022/06/29 03:12:50;;;;;;;10.25;5.80;;;14.20;99.90;;;;;;5048530;28;20048;-86
2022/06/29 03:15:15;;;;;;;8.25;5.82;;;14.30;99.90;;;;;;5031743;28;20047;-87
2022/06/29 03:17:41;;;;;;;8.95;6.50;;;14.20;99.90;;;;;;5047496;28;20174;-86
2022/06/29 03:20:07;;;;;;;9.07;6.30;;;14.20;99.90;;;;;;5014915;28;20501;-86
2022/06/29 03:22:34;;;;;;;10.07;6.60;;;14.20;99.90;;;;;;5042106;28;20830;-85
2022/06/29 03:24:59;;;;;;;8.10;6.53;;;14.20;99.90;;;;;;5025105;28;20037;-88
2022/06/29 03:27:25;;;;;;;6.93;6.20;;;14.10;99.90;;;;;;5019956;28;20044;-87
2022/06/29 03:29:51;;;;;;;11.10;7.32;;;14.20;99.90;;;;;;5033700;28;20043;-88
2022/06/29 03:32:16;;;;;;;8.43;6.50;;;14.20;99.90;;;;;;5021086;28;20529;-88
2022/06/29 03:34:42;;;;;;;8.23;6.15;;;14.20;99.90;;;;;;5032298;28;20052;-87
2022/06/29 03:37:08;;;;;;;8.40;7.38;;;14.20;99.90;;;;;;5049856;28;20052;-87
2022/06/29 03:39:34;;;;;;;7.82;6.85;;;14.20;99.90;;;;;;5031899;28;20032;-87
2022/06/29 03:42:00;;;;;;;11.23;7.50;;;14.20;99.90;;;;;;5029739;28;20076;-87
2022/06/29 03:44:25;;;;;;;8.75;7.15;;;14.20;99.90;;;;;;5032225;28;20068;-86
2022/06/29 03:46:51;;;;;;;8.10;6.45;;;14.20;99.90;;;;;;5033019;28;20504;-86
2022/06/29 03:49:17;;;;;;;7.72;6.93;;;14.20;99.90;;;;;;5027116;28;20122;-88
2022/06/29 03:51:42;;;;;;;10.23;6.90;;;14.20;99.90;;;;;;5023501;28;20049;-86
2022/06/29 03:54:08;;;;;;;7.15;6.45;;;14.20;99.90;;;;;;5046139;28;20064;-86
2022/06/29 03:56:34;;;;;;;7.72;6.45;;;14.30;99.90;;;;;;5034988;28;20071;-86
2022/06/29 03:58:59;;;;;;;7.38;6.60;;;14.30;99.90;;;;;;5019437;28;20040;-86
2022/06/29 04:01:25;;;;;;;7.80;6.60;;;14.30;99.90;;;;;;4999413;28;20044;-87
2022/06/29 04:03:51;;;;;;;7.55;6.78;;;14.30;99.90;;;;;;5026849;28;20490;-87
2022/06/29 04:06:18;;;;;;;7.88;6.88;;;14.30;99.90;;;;;;5016825;28;20087;-86
2022/06/29 04:08:44;;;;;;;7.75;6.97;;;14.20;99.90;;;;;;5023614;28;20037;-86
2022/06/29 04:13:54;;;;;;;8.43;7.10;;;14.10;99.90;;;;;;5048008;28;20045;-87
2022/06/29 04:16:20;;;;;;;7.82;6.57;;;14.00;99.90;;;;;;5018634;28;20147;-85
2022/06/29 04:18:45;;;;;;;8.40;7.45;;;14.00;99.90;;;;;;5035322;28;20032;-85
2022/06/29 04:21:11;;;;;;;7.63;6.85;;;14.00;99.90;;;;;;5024788;28;20040;-86
2022/06/29 04:23:36;;;;;;;8.55;7.28;;;13.90;99.90;;;;;;5014342;28;20040;-86
2022/06/29 04:26:02;;;;;;;7.68;6.88;;;13.80;99.90;;;;;;5031273;28;20127;-86
2022/06/29 04:28:28;;;;;;;7.95;6.85;;;13.80;99.90;;;;;;5047827;28;20044;-87
2022/06/29 04:30:53;;;;;;;8.15;6.80;;;13.80;99.90;;;;;;5024692;28;20040;-87
2022/06/29 04:33:19;;;;;;;9.13;7.28;;;13.80;99.90;;;;;;5027000;28;20036;-86
2022/06/29 04:35:45;;;;;;;10.93;7.85;;;13.80;99.90;;;;;;5024287;28;20170;-88
2022/06/29 04:38:10;;;;;;;8.35;7.55;;;13.90;99.90;;;;;;5015979;28;20040;-87
2022/06/29 04:40:36;;;;;;;7.97;7.18;;;13.90;99.90;;;;;;5033715;28;20037;-88
2022/06/29 04:43:02;;;;;;;7.70;6.97;;;13.90;99.90;;;;;;5021696;28;20825;-88
2022/06/29 04:48:11;;;;;;;9.90;7.45;;;14.00;99.90;;;;;;5021404;28;20106;-87
2022/06/29 04:50:37;;;;;;;10.18;7.00;;;14.00;99.90;;;;;;5018458;28;20440;-88
2022/06/29 04:53:03;;;;;;;7.43;6.72;;;14.00;99.90;;;;;;5014625;28;20041;-87
2022/06/29 04:55:29;;;;;;;8.18;7.43;;;14.00;99.90;;;;;;5032640;28;20052;-87
2022/06/29 04:57:55;;;;;;;8.00;6.93;;;14.10;99.90;;;;;;5049882;28;20170;-88
2022/06/29 05:00:21;;;;;;;10.00;6.93;;;14.10;99.90;;;;;;5039161;28;20396;-87
2022/06/29 05:02:47;;;;;;;8.45;7.55;;;14.20;99.90;;;;;;5020550;28;20048;-86
2022/06/29 05:05:12;;;;;;;8.70;7.00;;;14.20;99.90;;;;;;5053113;28;20324;-88
2022/06/29 05:07:38;;;;;;;7.45;6.70;;;14.20;99.90;;;;;;5021798;28;20118;-88
2022/06/29 05:10:04;;;;;;;7.97;6.97;;;14.30;99.90;;;;;;5017038;28;20033;-86
2022/06/29 05:12:30;;;;;;;9.63;6.78;;;14.30;99.90;;;;;;5019892;28;20049;-89
2022/06/29 05:14:55;;;;;;;8.35;7.50;;;14.30;99.90;;;;;;5023721;28;20032;-88
2022/06/29 05:17:21;;;;;;;9.20;8.07;;;14.40;99.90;;;;;;5041243;28;20036;-88
2022/06/29 05:19:46;;;;;;;8.77;7.47;;;14.40;99.90;;;;;;5051567;28;20052;-88
2022/06/29 05:22:12;;;;;;;8.65;7.60;;;14.50;99.90;;;;;;5017265;28;20458;-88
2022/06/29 05:24:38;;;;;;;8.27;7.50;;;14.50;99.90;;;;;;5017041;28;20462;-88
2022/06/29 05:27:05;;;;;;;11.27;7.53;;;14.60;99.90;;;;;;5014788;28;20037;-88
2022/06/29 05:29:31;;;;;;;8.63;7.78;;;14.60;99.90;;;;;;5062157;28;20068;-90
2022/06/29 05:31:57;;;;;;;11.52;7.20;;;14.60;99.90;;;;;;5021909;28;20099;-88
2022/06/29 05:34:22;;;;;;;10.18;7.03;;;14.70;99.90;;;;;;5043906;28;20051;-88
2022/06/29 05:36:48;;;;;;;10.45;7.32;;;14.70;99.90;;;;;;5021598;28;20101;-86
2022/06/29 05:39:14;;;;;;;9.55;7.32;;;14.70;99.90;;;;;;5004258;28;20059;-87
2022/06/29 05:41:40;;;;;;;7.75;7.05;;;14.80;99.90;;;;;;5022252;28;20028;-87
2022/06/29 05:44:05;;;;;;;7.85;6.88;;;14.80;99.90;;;;;;5007696;28;20131;-90
2022/06/29 05:46:32;;;;;;;8.15;7.25;;;14.90;99.90;;;;;;5014810;28;20049;-89
2022/06/29 05:48:58;;;;;;;9.38;6.70;;;14.90;99.90;;;;;;5032702;28;20052;-89
2022/06/29 05:51:24;;;;;;;7.30;6.68;;;15.00;99.90;;;;;;5043029;28;20041;-89
2022/06/29 05:53:53;;;;;;;6.82;6.20;;;15.10;99.90;;;;;;5019601;28;20041;-90
2022/06/29 05:56:19;;;;;;;8.40;6.35;;;15.30;99.90;;;;;;5032381;28;20140;-90
2022/06/29 05:58:44;;;;;;;8.27;6.10;;;15.30;99.90;;;;;;5050384;28;20086;-90
2022/06/29 06:01:10;;;;;;;8.70;5.68;;;15.40;99.90;;;;;;5033990;28;20111;-89
2022/06/29 06:03:36;;;;;;;7.57;5.90;;;15.50;99.90;;;;;;5038801;28;20088;-91
2022/06/29 06:06:03;;;;;;;5.78;5.22;;;15.60;99.90;;;;;;5039136;28;20063;-89
2022/06/29 06:08:28;;;;;;;7.35;5.00;;;15.70;99.90;;;;;;5048285;28;20044;-90
2022/06/29 06:10:54;;;;;;;5.13;4.63;;;15.80;99.90;;;;;;5036481;28;20516;-90
2022/06/29 06:13:20;;;;;;;8.82;5.30;;;16.00;99.90;;;;;;5044703;28;20041;-90
2022/06/29 06:15:47;;;;;;;6.25;4.10;;;16.10;99.90;;;;;;5021740;28;20552;-89
2022/06/29 06:18:13;;;;;;;4.28;3.88;;;16.30;99.90;;;;;;5038291;28;20037;-90
2022/06/29 06:20:39;;;;;;;6.53;4.13;;;16.40;99.90;;;;;;5031127;28;20127;-91
2022/06/29 06:23:04;;;;;;;3.42;2.90;;;16.60;99.90;;;;;;5043456;28;20607;-90
2022/06/29 06:25:31;;;;;;;5.07;3.42;;;16.90;99.90;;;;;;5022695;28;20071;-89
2022/06/29 06:27:57;;;;;;;4.15;3.30;;;17.30;99.90;;;;;;5044708;28;20198;-89
2022/06/29 06:30:23;;;;;;;5.28;3.20;;;17.50;99.90;;;;;;5043233;28;20389;-90
2022/06/29 06:32:48;;;;;;;3.30;3.00;;;17.90;99.90;;;;;;5042464;28;20036;-89
2022/06/29 06:35:15;;;;;;;5.60;2.88;;;18.20;99.90;;;;;;5054732;28;20070;-90
2022/06/29 06:37:42;;;;;;;3.20;2.55;;;18.50;99.90;;;;;;5030894;28;20682;-89
2022/06/29 06:42:53;;;;;;;10.00;3.40;;;19.20;99.90;;;;;;5041367;28;20053;-89
2022/06/29 06:45:19;;;;;;;3.85;2.45;;;19.50;99.90;;;;;;5055105;28;20040;-89
2022/06/29 06:47:44;;;;;;;4.22;2.80;;;19.70;99.90;;;;;;5038454;28;20523;-89
2022/06/29 06:50:10;;;;;;;4.75;2.28;;;20.00;99.90;;;;;;5006348;28;20469;-89
2022/06/29 06:52:36;;;;;;;4.32;2.63;;;20.30;99.90;;;;;;5065645;28;20044;-90
2022/06/29 06:55:01;;;;;;;6.47;2.90;;;20.50;99.90;;;;;;5035978;28;20048;-89
2022/06/29 06:57:27;;;;;;;2.42;2.20;;;20.80;99.90;;;;;;5045920;28;20048;-90
2022/06/29 06:59:53;;;;;;;4.28;2.10;;;21.10;99.90;;;;;;5054213;28;20044;-89
2022/06/29 07:02:20;;;;;;;4.18;2.10;;;21.40;99.90;;;;;;5037918;28;20069;-88
2022/06/29 07:04:46;;;;;;;3.85;1.95;;;21.60;99.90;;;;;;5053996;28;20047;-88
2022/06/29 07:07:15;;;;;;;5.00;2.03;;;21.90;99.90;;;;;;5005563;28;20045;-88
2022/06/29 07:09:41;;;;;;;4.93;2.10;;;22.20;99.90;;;;;;5053478;28;20082;-93
2022/06/29 07:12:07;;;;;;;4.05;2.38;;;22.50;99.90;;;;;;5022257;28;20040;-92
2022/06/29 07:14:33;;;;;;;5.55;2.00;;;22.70;99.90;;;;;;5023284;28;20056;-91
2022/06/29 07:16:58;;;;;;;3.58;1.70;;;23.00;99.90;;;;;;5037943;28;20044;-91
2022/06/29 07:19:24;;;;;;;6.88;1.85;;;23.30;97.50;;;;;;5017872;28;20037;-91
2022/06/29 07:21:50;;;;;;;2.55;1.50;;;23.50;94.00;;;;;;5022412;28;20040;-91
2022/06/29 07:24:16;;;;;;;4.32;1.60;;;23.70;93.60;;;;;;5031376;28;20043;-92
2022/06/29 07:26:41;;;;;;;3.00;1.50;;;24.00;90.10;;;;;;5020532;28;20571;-92
2022/06/29 07:29:07;;;;;;;2.65;1.38;;;24.20;86.60;;;;;;5047645;28;20470;-91
2022/06/29 07:31:33;;;;;;;5.38;1.60;;;24.40;86.40;;;;;;5031128;28;20485;-91
2022/06/29 07:33:59;;;;;;;1.98;1.10;;;24.60;84.00;;;;;;5040045;28;20052;-91
2022/06/29 07:36:25;;;;;;;3.03;1.20;;;24.80;80.10;;;;;;5020942;28;20040;-90
2022/06/29 07:38:52;;;;;;;1.83;1.20;;;25.10;77.40;;;;;;5032585;28;20068;-88
2022/06/29 07:41:18;;;;;;;2.38;1.40;;;25.30;74.20;;;;;;5020487;28;20048;-88
2022/06/29 07:43:44;;;;;;;5.40;1.60;;;25.50;73.40;;;;;;5020885;28;20043;-89
2022/06/29 07:46:10;;;;;;;3.47;1.40;;;25.80;70.30;;;;;;5003054;28;20036;-89
2022/06/29 07:48:36;;;;;;;3.67;1.50;;;26.10;69.10;;;;;;5029984;28;20048;-89
2022/06/29 07:51:03;;;;;;;4.63;1.60;;;26.40;68.70;;;;;;5036648;28;20052;-89
2022/06/29 07:53:28;;;;;;;4.72;1.80;;;26.70;67.00;;;;;;5031311;28;20041;-88
2022/06/29 07:55:54;;;;;;;4.18;1.30;;;26.90;64.40;;;;;;5025445;28;20036;-88
2022/06/29 07:58:21;;;;;;;3.03;1.40;;;27.00;63.50;;;;;;5029769;28;20052;-89
2022/06/29 08:00:46;;;;;;;2.25;1.40;;;27.20;60.90;;;;;;5036351;28;20040;-89
2022/06/29 08:03:12;;;;;;;2.50;1.20;;;27.60;60.50;;;;;;5034928;28;20040;-87
2022/06/29 08:05:38;;;;;;;1.98;1.38;;;28.00;59.80;;;;;;5023266;28;20039;-88
2022/06/29 08:08:04;;;;;;;3.40;1.30;;;28.40;59.00;;;;;;5046706;28;20539;-87
2022/06/29 08:10:31;;;;;;;3.15;1.20;;;28.50;55.00;;;;;;5026013;28;20028;-88
2022/06/29 08:12:57;;;;;;;3.05;1.10;;;28.70;54.30;;;;;;5051642;28;20052;-88
2022/06/29 08:15:24;;;;;;;4.80;1.25;;;29.10;54.40;;;;;;5056466;28;20040;-88
2022/06/29 08:17:51;;;;;;;6.35;1.20;;;29.40;52.20;;;;;;5044626;28;20076;-91
2022/06/29 08:20:16;;;;;;;4.53;1.30;;;29.50;49.50;;;;;;5036220;28;20047;-88
2022/06/29 08:22:42;;;;;;;4.55;1.10;;;29.30;48.00;;;;;;5033331;28;20057;-88
2022/06/29 08:25:09;;;;;;;2.20;1.20;;;29.20;47.70;;;;;;5018250;28;20139;-89
2022/06/29 08:27:35;;;;;;;2.42;1.58;;;28.70;47.80;;;;;;5047176;28;20036;-89
2022/06/29 08:30:00;;;;;;;1.70;1.23;;;28.40;48.50;;;;;;5043936;28;20045;-88
2022/06/29 08:32:26;;;;;;;7.90;1.58;;;28.30;49.30;;;;;;5021755;28;20036;-89
2022/06/29 08:34:52;;;;;;;5.22;1.50;;;28.20;50.10;;;;;;5023223;28;20040;-91
2022/06/29 08:37:18;;;;;;;2.13;1.20;;;28.20;49.20;;;;;;5034937;28;20060;-89
2022/06/29 08:39:45;;;;;;;3.38;1.77;;;28.70;50.10;;;;;;5020497;28;20051;-88
2022/06/29 08:42:11;;;;;;;2.17;1.13;;;29.60;49.50;;;;;;5021239;28;20044;-89
2022/06/29 08:44:38;;;;;;;1.63;1.17;;;30.60;49.10;;;;;;5039668;28;20093;-89
2022/06/29 08:47:05;;;;;;;4.88;1.30;;;31.20;45.80;;;;;;5036905;28;20040;-89
2022/06/29 08:49:33;;;;;;;4.07;1.67;;;31.40;45.20;;;;;;5049412;28;20057;-89
2022/06/29 08:52:04;;;;;;;2.28;1.23;;;31.60;44.40;;;;;;5040077;28;20052;-88
2022/06/29 08:54:31;;;;;;;3.90;1.42;;;31.70;43.60;;;;;;5045232;28;20497;-88
2022/06/29 08:56:58;;;;;;;3.35;1.35;;;31.90;42.50;;;;;;5041460;28;20044;-90
2022/06/29 08:59:24;;;;;;;3.22;1.00;;;32.20;42.30;;;;;;5039858;28;20102;-89
2022/06/29 09:01:52;;;;;;;3.35;1.17;;;32.60;42.20;;;;;;5040805;28;20028;-89
2022/06/29 09:04:19;;;;;;;3.45;1.00;;;33.00;41.60;;;;;;5055920;28;20049;-90
2022/06/29 09:06:53;;;;;;;3.33;1.20;;;33.50;40.80;;;;;;5055529;28;20098;-89
2022/06/29 09:09:18;;;;;;;1.73;1.40;;;33.90;41.00;;;;;;5023306;28;20397;-90
2022/06/29 09:11:46;;;;;;;4.20;1.30;;;33.70;39.80;;;;;;5019744;28;20067;-90
2022/06/29 09:14:27;;;;;;;2.53;1.10;;;33.20;39.10;;;;;;5018784;28;20557;-89
2022/06/29 09:16:56;;;;;;;2.17;1.00;;;32.90;39.90;;;;;;5044775;28;20501;-89
2022/06/29 09:19:26;;;;;;;3.97;1.17;;;32.60;39.50;;;;;;5034614;28;20068;-89
2022/06/29 09:21:54;;;;;;;3.50;1.23;;;32.50;38.60;;;;;;5037259;28;20443;-88
2022/06/29 09:24:28;;;;;;;2.65;1.27;;;32.40;37.40;;;;;;5049344;28;20055;-89
2022/06/29 09:27:00;;;;;;;1.65;1.10;;;32.70;36.90;;;;;;5048472;28;20115;-89
2022/06/29 09:29:39;;;;;;;1.83;1.40;;;33.60;36.90;;;;;;5067576;28;20045;-88
2022/06/29 09:32:05;;;;;;;3.53;1.17;;;34.00;34.60;;;;;;5027364;28;20068;-88
2022/06/29 09:34:36;;;;;;;1.77;1.45;;;34.20;33.80;;;;;;5056446;28;20071;-89
2022/06/29 09:37:04;;;;;;;2.90;1.23;;;34.40;34.00;;;;;;5055477;28;20443;-89
2022/06/29 09:39:36;;;;;;;1.63;1.23;;;34.60;32.90;;;;;;5023232;28;20037;-89
2022/06/29 09:42:10;;;;;;;3.65;1.38;;;34.80;32.20;;;;;;5036436;28;20040;-90
2022/06/29 09:44:36;;;;;;;3.55;1.20;;;35.00;32.40;;;;;;5046821;28;20477;-89
2022/06/29 09:47:06;;;;;;;2.10;1.40;;;35.20;32.50;;;;;;5024016;28;20052;-89
2022/06/29 09:49:33;;;;;;;1.33;1.23;;;35.60;32.10;;;;;;5065454;28;20414;-88
2022/06/29 09:52:01;;;;;;;8.20;1.38;;;36.10;31.70;;;;;;5054847;28;20054;-88
2022/06/29 09:54:32;;;;;;;2.63;1.30;;;36.20;30.50;;;;;;5022030;28;20044;-89
2022/06/29 09:56:59;;;;;;;3.20;1.10;;;36.30;30.50;;;;;;5025484;28;20045;-89
2022/06/29 10:02:39;;;;;;;2.67;1.10;;;36.90;29.60;;;;;;5058545;28;20056;-88
2022/06/29 10:05:10;;;;;;;1.88;1.13;;;36.90;30.50;;;;;;5047305;28;20380;-89
2022/06/29 10:07:42;;;;;;;2.15;1.20;;;36.80;30.30;;;;;;5053915;28;20500;-89
2022/06/29 10:10:16;;;;;;;1.55;1.23;;;36.10;31.10;;;;;;5043220;28;20045;-89
2022/06/29 10:16:00;;;;;;;4.03;1.30;;;37.40;31.10;;;;;;5042596;28;20621;-90
2022/06/29 10:18:53;;;;;;;4.97;1.25;;;37.40;30.00;;;;;;5034753;28;20806;-88
2022/06/29 10:21:23;;;;;;;2.28;1.20;;;37.50;31.30;;;;;;5037588;28;20385;-88
2022/06/29 10:23:51;;;;;;;3.20;1.23;;;37.70;29.20;;;;;;5047414;28;20032;-88
2022/06/29 10:26:30;;;;;;;1.45;1.23;;;37.50;28.70;;;;;;5030396;28;20044;-89
2022/06/29 10:29:16;;;;;;;2.40;1.10;;;36.40;29.30;;;;;;5035714;28;20044;-88
2022/06/29 10:32:06;;;;;;;1.48;1.30;;;35.20;30.10;;;;;;5037498;28;20075;-87
2022/06/29 10:34:31;;;;;;;1.38;0.88;;;33.90;31.90;;;;;;5043355;28;20052;-87
2022/06/29 10:37:08;;;;;;;1.23;1.13;;;33.20;32.30;;;;;;5024542;28;20059;-88
2022/06/29 10:39:49;;;;;;;1.30;1.20;;;32.40;33.40;;;;;;5046863;28;20045;-88
2022/06/29 10:45:22;;;;;;;2.25;1.15;;;31.40;37.30;;;;;;5041268;28;20438;-91
2022/06/29 10:47:54;;;;;;;3.40;1.20;;;31.50;36.90;;;;;;5037856;28;20063;-88
2022/06/29 10:50:21;;;;;;;7.13;1.63;;;31.80;36.40;;;;;;5042401;28;20059;-88
2022/06/29 10:52:48;;;;;;;4.45;1.20;;;32.20;36.50;;;;;;5043031;28;20049;-87
2022/06/29 10:55:15;;;;;;;2.75;1.50;;;32.80;35.30;;;;;;5031230;28;20538;-87
2022/06/29 10:57:42;;;;;;;4.03;1.70;;;33.60;33.20;;;;;;5026966;28;20060;-87
2022/06/29 11:00:14;;;;;;;2.92;1.70;;;33.90;32.20;;;;;;5021343;28;20041;-87
2022/06/29 11:02:41;;;;;;;2.90;1.48;;;33.80;32.40;;;;;;5054280;28;20062;-87
2022/06/29 11:05:07;;;;;;;2.90;1.33;;;34.70;32.20;;;;;;5054585;28;20064;-87
2022/06/29 11:13:02;;;;;;;1.45;1.13;;;36.40;29.00;;;;;;5039216;28;20068;-87
2022/06/29 11:15:39;;;;;;;1.35;1.00;;;37.00;29.00;;;;;;5034911;28;20572;-89
2022/06/29 11:18:06;;;;;;;3.88;1.20;;;37.40;28.80;;;;;;5039622;28;20504;-88
2022/06/29 11:20:32;;;;;;;1.10;1.00;;;37.20;27.90;;;;;;5030633;28;20539;-88
2022/06/29 11:22:58;;;;;;;5.47;1.60;;;37.00;28.50;;;;;;5014943;28;20048;-88
2022/06/29 11:25:26;;;;;;;1.55;1.25;;;37.20;28.90;;;;;;5020855;28;20113;-88
2022/06/29 11:27:52;;;;;;;3.03;1.30;;;37.90;28.70;;;;;;5052600;28;20048;-87
2022/06/29 11:30:22;;;;;;;6.93;1.73;;;37.80;28.80;;;;;;5053226;28;20114;-87
2022/06/29 11:32:49;;;;;;;3.90;1.20;;;37.60;27.80;;;;;;5020489;28;20193;-87
2022/06/29 11:35:23;;;;;;;2.85;1.23;;;37.90;27.80;;;;;;5037847;28;20111;-90
2022/06/29 11:37:57;;;;;;;2.40;1.30;;;37.50;27.50;;;;;;5047904;28;20080;-88
2022/06/29 11:40:36;;;;;;;2.22;1.50;;;37.00;28.90;;;;;;5036829;28;20117;-88
2022/06/29 11:43:07;;;;;;;6.00;1.40;;;37.10;29.20;;;;;;5036730;28;20048;-88
2022/06/29 11:45:51;;;;;;;2.45;1.23;;;37.00;28.90;;;;;;5017139;28;20455;-88
2022/06/29 11:48:17;;;;;;;1.65;1.50;;;36.70;28.80;;;;;;5035616;28;20049;-90
2022/06/29 11:50:57;;;;;;;2.70;1.27;;;36.30;28.40;;;;;;5036479;28;20419;-88
2022/06/29 11:53:38;;;;;;;4.18;1.60;;;36.00;29.90;;;;;;5023497;28;20063;-87
2022/06/29 11:56:15;;;;;;;3.75;1.70;;;35.90;29.90;;;;;;5040623;28;20395;-85
2022/06/29 11:58:52;;;;;;;2.55;1.52;;;35.50;29.90;;;;;;5053172;28;20107;-88
2022/06/29 12:01:27;;;;;;;10.50;1.80;;;35.60;31.50;;;;;;5052923;28;20044;-91
2022/06/29 12:03:54;;;;;;;1.95;1.42;;;35.80;30.40;;;;;;5020739;28;20132;-86
2022/06/29 12:06:25;;;;;;;4.97;1.70;;;35.50;30.00;;;;;;5034138;28;20037;-89
2022/06/29 12:08:55;;;;;;;1.88;1.77;;;35.20;31.10;;;;;;5037747;28;20054;-87
2022/06/29 12:11:22;;;;;;;3.83;1.75;;;35.10;31.70;;;;;;5050775;28;20076;-88
2022/06/29 12:13:49;;;;;;;2.40;2.10;;;34.70;30.70;;;;;;5036794;28;20068;-89
2022/06/29 12:16:15;;;;;;;2.50;2.20;;;34.20;31.80;;;;;;5029397;28;20045;-89
2022/06/29 12:18:41;;;;;;;1.92;1.83;;;33.90;33.00;;;;;;5021771;28;20557;-89
2022/06/29 12:21:08;;;;;;;4.72;2.40;;;34.40;32.60;;;;;;5041877;28;20040;-89
2022/06/29 12:23:34;;;;;;;3.03;2.10;;;35.70;32.20;;;;;;5052372;28;20083;-89
2022/06/29 12:26:00;;;;;;;1.85;1.75;;;37.00;31.40;;;;;;5051633;28;20040;-90
2022/06/29 12:28:26;;;;;;;2.38;2.15;;;37.80;30.30;;;;;;5003891;28;20059;-88
2022/06/29 12:30:52;;;;;;;4.88;1.80;;;38.60;29.10;;;;;;5021058;28;20033;-88
2022/06/29 12:33:19;;;;;;;2.92;2.10;;;39.10;28.60;;;;;;5040474;28;20063;-89
2022/06/29 12:35:45;;;;;;;2.15;1.95;;;39.40;28.00;;;;;;5037274;28;20037;-84
2022/06/29 12:38:11;;;;;;;3.90;1.90;;;39.80;27.70;;;;;;5015335;28;20499;-83
2022/06/29 12:40:37;;;;;;;5.82;2.15;;;40.10;27.00;;;;;;5036610;28;20045;-83
2022/06/29 12:43:03;;;;;;;2.63;2.00;;;40.50;27.30;;;;;;5036399;28;20051;-87
2022/06/29 12:45:29;;;;;;;3.63;2.72;;;40.90;27.40;;;;;;5036942;28;20045;-88
2022/06/29 12:47:57;;;;;;;5.20;2.17;;;41.10;26.10;;;;;;5046088;28;20043;-87
2022/06/29 12:50:24;;;;;;;3.92;2.03;;;41.70;26.20;;;;;;5039207;28;20049;-90
2022/06/29 12:52:51;;;;;;;3.35;2.30;;;41.90;25.90;;;;;;5033921;28;20040;-88
2022/06/29 12:55:19;;;;;;;2.70;2.50;;;41.30;25.50;;;;;;5050261;28;20133;-89
2022/06/29 12:57:45;;;;;;;3.03;2.45;;;40.50;25.80;;;;;;5020530;28;20045;-88
2022/06/29 13:00:12;;;;;;;2.45;2.15;;;40.40;26.40;;;;;;5040983;28;20098;-89
2022/06/29 13:02:38;;;;;;;4.35;2.47;;;39.60;26.40;;;;;;5055563;28;20106;-89
2022/06/29 13:05:05;;;;;;;3.17;2.40;;;38.50;27.70;;;;;;5049841;28;20064;-89
2022/06/29 13:07:31;;;;;;;3.85;2.38;;;37.50;28.90;;;;;;5063374;28;20040;-87
2022/06/29 13:09:57;;;;;;;4.40;2.50;;;37.10;29.90;;;;;;5039882;28;20042;-88
2022/06/29 13:12:24;;;;;;;4.68;2.30;;;37.50;30.00;;;;;;5023237;28;20061;-89
2022/06/29 13:14:50;;;;;;;6.15;2.45;;;38.00;29.40;;;;;;5048429;28;20052;-88